Time;durP1;ratioP1;P1;durP2;ratioP2;P2;SDS_P1;SDS_P2;PMS_P1;PMS_P2;Temp;Humidity;BMP_temperature;BMP_pressure;BME280_temperature;BME280_humidity;BME280_pressure;Samples;Min_cycle;Max_cycle;Signal;HPM_P1;HPM_P2
2023/04/04 00:00:08;;;;;;;19.23;5.72;;;;;;;1.04;100.00;102778.09;5070691;28;20033;-68
2023/04/04 00:02:33;;;;;;;19.48;5.55;;;;;;;0.94;100.00;102781.72;5076352;28;20115;-70
2023/04/04 00:04:59;;;;;;;18.40;5.78;;;;;;;1.00;100.00;102781.28;5062630;28;20487;-68
2023/04/04 00:07:25;;;;;;;18.58;6.00;;;;;;;0.94;100.00;102773.91;5063695;28;20036;-68
2023/04/04 00:09:50;;;;;;;19.13;5.93;;;;;;;1.07;100.00;102778.34;5071024;28;20025;-68
2023/04/04 00:12:16;;;;;;;18.15;5.75;;;;;;;0.88;100.00;102778.66;5072914;28;20495;-68
2023/04/04 00:14:41;;;;;;;19.33;6.10;;;;;;;0.88;100.00;102780.38;5068579;28;20111;-68
2023/04/04 00:17:07;;;;;;;18.05;5.70;;;;;;;0.93;100.00;102789.41;5068222;28;20493;-67
2023/04/04 00:19:32;;;;;;;18.67;5.63;;;;;;;0.86;100.00;102780.25;5075569;28;20025;-68
2023/04/04 00:21:58;;;;;;;18.50;5.80;;;;;;;0.85;100.00;102794.06;5074340;28;20036;-68
2023/04/04 00:24:23;;;;;;;18.98;6.13;;;;;;;0.85;100.00;102791.47;5070670;28;20025;-68
2023/04/04 00:26:49;;;;;;;19.13;5.70;;;;;;;0.85;100.00;102786.25;5066015;28;20515;-68
2023/04/04 00:29:14;;;;;;;18.50;5.78;;;;;;;0.73;100.00;102788.84;5072037;28;20025;-68
2023/04/04 00:31:40;;;;;;;18.70;5.60;;;;;;;0.60;100.00;102787.00;5070139;28;20039;-71
2023/04/04 00:34:05;;;;;;;17.77;5.65;;;;;;;0.56;100.00;102782.34;5074432;28;20052;-67
2023/04/04 00:36:31;;;;;;;17.42;5.65;;;;;;;0.39;100.00;102790.56;5069303;28;20047;-68
2023/04/04 00:38:56;;;;;;;17.15;5.50;;;;;;;0.42;100.00;102789.09;5069801;28;20383;-68
2023/04/04 00:41:22;;;;;;;17.75;5.75;;;;;;;0.39;100.00;102794.06;5071084;28;20469;-68
2023/04/04 00:43:48;;;;;;;18.70;5.68;;;;;;;0.36;100.00;102788.63;5066068;28;20041;-68
2023/04/04 00:46:16;;;;;;;18.63;5.50;;;;;;;0.25;100.00;102795.63;5067835;28;20031;-68
2023/04/04 00:48:42;;;;;;;17.80;5.72;;;;;;;0.38;100.00;102792.28;5066292;28;20035;-68
2023/04/04 00:51:07;;;;;;;17.65;5.47;;;;;;;0.29;100.00;102795.06;5067677;28;20398;-68
2023/04/04 00:53:33;;;;;;;17.27;5.40;;;;;;;0.26;100.00;102797.44;5076711;28;20098;-68
2023/04/04 00:55:58;;;;;;;18.55;5.65;;;;;;;0.15;100.00;102790.50;5066120;28;20037;-69
2023/04/04 00:58:25;;;;;;;18.52;5.70;;;;;;;0.15;100.00;102794.00;5066371;28;20020;-70
2023/04/04 01:00:50;;;;;;;17.73;5.38;;;;;;;0.11;100.00;102801.44;5070909;28;20032;-68
2023/04/04 01:03:17;;;;;;;19.50;5.38;;;;;;;0.15;100.00;102800.91;5069850;28;20104;-68
2023/04/04 01:05:42;;;;;;;18.25;5.60;;;;;;;0.12;100.00;102801.56;5065661;28;20028;-68
2023/04/04 01:08:08;;;;;;;18.83;5.45;;;;;;;0.09;100.00;102788.31;5069239;28;20051;-68
2023/04/04 01:10:33;;;;;;;18.40;5.53;;;;;;;0.05;100.00;102791.47;5072412;28;20029;-69
2023/04/04 01:13:00;;;;;;;17.90;5.45;;;;;;;0.02;100.00;102793.81;5063906;28;20388;-68
2023/04/04 01:15:25;;;;;;;18.63;5.80;;;;;;;0.11;100.00;102793.63;5069888;28;20025;-68
2023/04/04 01:17:55;;;;;;;18.75;5.65;;;;;;;0.04;100.00;102783.53;5069296;28;20471;-68
2023/04/04 01:20:25;;;;;;;19.05;5.90;;;;;;;-0.05;100.00;102781.13;5072101;28;20063;-70
2023/04/04 01:22:52;;;;;;;18.42;5.75;;;;;;;-0.07;100.00;102775.81;5074147;28;20064;-67
2023/04/04 01:25:20;;;;;;;18.08;5.72;;;;;;;-0.08;100.00;102757.50;5072966;28;20033;-68
2023/04/04 01:27:45;;;;;;;17.48;5.57;;;;;;;-0.07;100.00;102764.50;5071108;28;20115;-68
2023/04/04 01:30:13;;;;;;;19.15;5.40;;;;;;;-0.13;100.00;102764.94;5066535;28;20543;-68
2023/04/04 01:32:55;;;;;;;18.55;5.85;;;;;;;-0.12;100.00;102769.31;5071442;28;20048;-68
2023/04/04 01:35:31;;;;;;;18.05;5.43;;;;;;;-0.11;100.00;102765.94;5064654;28;20392;-67
2023/04/04 01:38:29;;;;;;;18.83;5.60;;;;;;;-0.17;100.00;102770.69;5067195;28;20039;-68
2023/04/04 01:41:00;;;;;;;19.00;5.75;;;;;;;-0.32;100.00;102762.59;5076961;28;20095;-70
2023/04/04 01:43:25;;;;;;;18.05;5.82;;;;;;;-0.21;100.00;102760.81;5064537;28;20028;-68
2023/04/04 01:45:51;;;;;;;19.30;5.82;;;;;;;-0.29;100.00;102757.63;5070564;28;20031;-68
2023/04/04 01:48:16;;;;;;;18.75;5.80;;;;;;;-0.29;100.00;102761.91;5063610;28;20124;-67
2023/04/04 01:50:41;;;;;;;18.70;5.97;;;;;;;-0.22;100.00;102759.91;5068129;28;20024;-71
2023/04/04 01:53:07;;;;;;;18.50;5.82;;;;;;;-0.31;100.00;102759.19;5068003;28;20032;-68
2023/04/04 01:55:32;;;;;;;18.40;5.65;;;;;;;-0.26;100.00;102751.72;5065888;28;20384;-68
2023/04/04 01:57:57;;;;;;;18.77;5.80;;;;;;;-0.34;100.00;102758.94;5071254;28;20448;-69
2023/04/04 02:00:23;;;;;;;18.58;6.00;;;;;;;-0.43;100.00;102760.81;5069590;28;20021;-68
2023/04/04 02:02:48;;;;;;;19.15;5.70;;;;;;;-0.49;100.00;102757.75;5060214;28;20054;-68
2023/04/04 02:05:14;;;;;;;18.80;6.20;;;;;;;-0.56;100.00;102756.31;5070412;28;20119;-68
2023/04/04 02:07:40;;;;;;;18.35;5.72;;;;;;;-0.54;100.00;102755.66;5070718;28;20492;-68
2023/04/04 02:10:05;;;;;;;20.30;6.25;;;;;;;-0.64;100.00;102762.59;5067826;28;20472;-68
2023/04/04 02:12:31;;;;;;;17.85;5.82;;;;;;;-0.67;100.00;102767.53;5072419;28;20033;-69
2023/04/04 02:14:56;;;;;;;19.95;6.00;;;;;;;-0.85;100.00;102766.97;5067411;28;20103;-68
2023/04/04 02:17:21;;;;;;;19.05;6.22;;;;;;;-0.95;100.00;102760.09;5064881;28;20028;-69
2023/04/04 02:19:47;;;;;;;18.08;5.93;;;;;;;-1.05;100.00;102763.63;5070287;28;20025;-67
2023/04/04 02:22:12;;;;;;;19.25;6.30;;;;;;;-1.12;100.00;102767.44;5067106;28;20390;-68
2023/04/04 02:24:37;;;;;;;18.85;6.30;;;;;;;-1.12;100.00;102766.50;5068507;28;20394;-68
2023/04/04 02:27:03;;;;;;;19.30;6.10;;;;;;;-1.10;100.00;102760.66;5064305;28;20072;-68
2023/04/04 02:29:29;;;;;;;18.83;6.30;;;;;;;-1.12;100.00;102772.63;5068142;28;20029;-68
2023/04/04 02:31:54;;;;;;;18.60;6.28;;;;;;;-1.20;100.00;102771.06;5061091;28;20513;-68
2023/04/04 02:34:20;;;;;;;19.20;6.38;;;;;;;-1.28;100.00;102774.72;5067328;28;20063;-68
2023/04/04 02:36:45;;;;;;;18.90;6.25;;;;;;;-1.30;100.00;102782.38;5072106;28;20086;-68
2023/04/04 02:39:11;;;;;;;19.55;6.40;;;;;;;-1.36;100.00;102779.25;5067907;28;20504;-69
2023/04/04 02:41:36;;;;;;;19.73;6.53;;;;;;;-1.37;100.00;102779.13;5070314;28;20387;-70
2023/04/04 02:44:01;;;;;;;19.73;6.60;;;;;;;-1.42;100.00;102777.06;5071894;28;20163;-68
2023/04/04 02:46:27;;;;;;;19.25;6.50;;;;;;;-1.37;100.00;102781.75;5071222;28;20115;-70
2023/04/04 02:48:52;;;;;;;18.98;6.60;;;;;;;-1.35;100.00;102778.50;5067926;28;20034;-70
2023/04/04 02:51:18;;;;;;;19.30;6.22;;;;;;;-1.30;100.00;102771.97;5065800;28;20041;-69
2023/04/04 02:53:43;;;;;;;19.52;6.78;;;;;;;-1.33;100.00;102761.34;5072091;28;20483;-71
2023/04/04 02:56:08;;;;;;;20.40;6.65;;;;;;;-1.32;100.00;102767.47;5070894;28;20039;-73
2023/04/04 02:58:34;;;;;;;19.50;6.90;;;;;;;-1.31;100.00;102761.47;5076364;28;20028;-70
2023/04/04 03:00:59;;;;;;;20.63;6.70;;;;;;;-1.31;100.00;102764.06;5071478;28;20039;-71
2023/04/04 03:03:25;;;;;;;20.00;6.55;;;;;;;-1.25;100.00;102769.81;5065615;28;20029;-69
2023/04/04 03:05:50;;;;;;;19.52;6.55;;;;;;;-1.22;100.00;102759.66;5075227;28;20029;-70
2023/04/04 03:08:16;;;;;;;19.55;6.55;;;;;;;-1.24;100.00;102767.31;5070632;28;20043;-69
2023/04/04 03:10:45;;;;;;;20.50;6.60;;;;;;;-1.24;100.00;102766.41;5072692;28;20027;-70
2023/04/04 03:13:11;;;;;;;19.25;6.63;;;;;;;-1.28;100.00;102770.44;5074476;28;20029;-70
2023/04/04 03:15:36;;;;;;;17.92;6.28;;;;;;;-1.29;100.00;102765.13;5076853;28;20132;-70
2023/04/04 03:18:02;;;;;;;19.00;6.63;;;;;;;-1.34;100.00;102763.81;5079902;28;20029;-70
2023/04/04 03:20:28;;;;;;;19.23;6.15;;;;;;;-1.50;100.00;102772.94;5070491;28;20509;-70
2023/04/04 03:22:53;;;;;;;18.70;6.28;;;;;;;-1.61;100.00;102768.53;5070433;28;20062;-71
2023/04/04 03:25:19;;;;;;;19.45;6.70;;;;;;;-1.65;100.00;102763.84;5064695;28;20029;-71
2023/04/04 03:27:44;;;;;;;20.98;6.65;;;;;;;-1.66;100.00;102769.81;5072101;28;20032;-71
2023/04/04 03:30:10;;;;;;;19.35;6.90;;;;;;;-1.70;100.00;102771.25;5067436;28;20032;-69
2023/04/04 03:32:36;;;;;;;19.10;6.63;;;;;;;-1.66;100.00;102775.91;5077444;28;20475;-71
2023/04/04 03:35:02;;;;;;;19.20;6.88;;;;;;;-1.68;100.00;102768.78;5077753;28;20053;-71
2023/04/04 03:37:29;;;;;;;21.17;6.90;;;;;;;-1.74;100.00;102756.19;5071209;28;20384;-71
2023/04/04 03:39:54;;;;;;;19.67;7.30;;;;;;;-1.68;100.00;102756.72;5068459;28;20098;-73
2023/04/04 03:42:19;;;;;;;19.73;7.20;;;;;;;-1.65;100.00;102756.06;5072510;28;20070;-71
2023/04/04 03:44:45;;;;;;;19.55;7.32;;;;;;;-1.68;100.00;102750.63;5070645;28;20025;-72
2023/04/04 03:47:10;;;;;;;20.73;7.50;;;;;;;-1.63;100.00;102752.84;5074500;28;20040;-70
2023/04/04 03:49:35;;;;;;;20.08;7.47;;;;;;;-1.70;100.00;102742.72;5054003;28;20032;-70
2023/04/04 03:52:02;;;;;;;20.02;7.32;;;;;;;-1.68;100.00;102740.25;5071699;28;20013;-70
2023/04/04 03:54:28;;;;;;;19.98;7.55;;;;;;;-1.71;100.00;102740.91;5070528;28;20093;-71
2023/04/04 03:56:54;;;;;;;20.80;7.10;;;;;;;-1.68;100.00;102740.25;5071141;28;20479;-69
2023/04/04 03:59:20;;;;;;;18.65;7.15;;;;;;;-1.72;100.00;102739.06;5071051;28;20117;-72
2023/04/04 04:01:45;;;;;;;20.02;6.95;;;;;;;-1.82;100.00;102737.41;5067749;28;20029;-71
2023/04/04 04:04:11;;;;;;;18.75;6.80;;;;;;;-1.87;100.00;102736.09;5068675;28;20031;-70
2023/04/04 04:06:36;;;;;;;19.65;7.28;;;;;;;-1.99;100.00;102738.56;5070626;28;20025;-70
2023/04/04 04:09:02;;;;;;;19.77;7.10;;;;;;;-2.05;100.00;102750.06;5065107;28;20025;-71
2023/04/04 04:11:28;;;;;;;21.10;7.07;;;;;;;-2.09;100.00;102753.19;5070496;28;20032;-70
2023/04/04 04:13:53;;;;;;;19.77;7.40;;;;;;;-2.17;100.00;102752.50;5070883;28;20478;-70
2023/04/04 04:16:20;;;;;;;19.58;7.43;;;;;;;-2.14;100.00;102753.72;5070107;28;20039;-70
2023/04/04 04:18:46;;;;;;;20.40;7.50;;;;;;;-2.12;100.00;102749.56;5070562;28;20037;-70
2023/04/04 04:21:11;;;;;;;19.55;7.13;;;;;;;-2.18;100.00;102746.44;5070364;28;20059;-70
2023/04/04 04:23:37;;;;;;;20.20;7.18;;;;;;;-2.20;100.00;102745.41;5075334;28;20051;-68
2023/04/04 04:26:02;;;;;;;20.30;7.43;;;;;;;-2.20;100.00;102736.69;5071031;28;20025;-68
2023/04/04 04:28:28;;;;;;;19.77;7.40;;;;;;;-2.21;100.00;102741.00;5069227;28;20044;-69
2023/04/04 04:30:53;;;;;;;21.38;7.50;;;;;;;-2.26;100.00;102743.97;5070011;28;20036;-68
2023/04/04 04:33:19;;;;;;;20.27;7.35;;;;;;;-2.24;100.00;102735.53;5065307;28;20118;-68
2023/04/04 04:35:44;;;;;;;20.52;7.60;;;;;;;-2.25;100.00;102736.31;5070131;28;20029;-69
2023/04/04 04:38:09;;;;;;;19.58;7.18;;;;;;;-2.25;100.00;102738.00;5072557;28;20483;-68
2023/04/04 04:40:35;;;;;;;20.45;7.47;;;;;;;-2.30;100.00;102738.50;5070220;28;20029;-68
2023/04/04 04:43:01;;;;;;;20.15;7.50;;;;;;;-2.33;100.00;102746.03;5073172;28;20024;-69
2023/04/04 04:45:26;;;;;;;20.27;7.78;;;;;;;-2.34;100.00;102732.94;5069081;28;20077;-69
2023/04/04 04:47:52;;;;;;;21.10;8.38;;;;;;;-2.45;100.00;102737.16;5072316;28;20040;-68
2023/04/04 04:50:17;;;;;;;20.55;7.65;;;;;;;-2.40;100.00;102732.38;5067660;28;20029;-68
2023/04/04 04:52:43;;;;;;;19.90;7.78;;;;;;;-2.40;100.00;102753.09;5068672;28;20090;-68
2023/04/04 04:55:10;;;;;;;19.70;7.78;;;;;;;-2.44;100.00;102759.72;5072865;28;20103;-68
2023/04/04 04:57:35;;;;;;;23.10;8.50;;;;;;;-2.49;100.00;102759.31;5075910;28;20383;-68
2023/04/04 05:00:03;;;;;;;21.30;8.20;;;;;;;-2.52;100.00;102759.06;5072960;28;20024;-69
2023/04/04 05:02:28;;;;;;;20.67;8.40;;;;;;;-2.56;100.00;102767.31;5067663;28;20017;-69
2023/04/04 05:04:54;;;;;;;20.90;8.60;;;;;;;-2.57;100.00;102775.84;5068292;28;20035;-68
2023/04/04 05:07:19;;;;;;;20.52;8.60;;;;;;;-2.59;100.00;102780.00;5071751;28;20514;-69
2023/04/04 05:09:45;;;;;;;20.38;8.75;;;;;;;-2.54;100.00;102778.72;5070785;28;20122;-68
2023/04/04 05:12:10;;;;;;;21.85;8.68;;;;;;;-2.56;100.00;102782.84;5065940;28;20025;-68
2023/04/04 05:14:36;;;;;;;22.00;8.80;;;;;;;-2.51;100.00;102776.38;5067533;28;20036;-68
2023/04/04 05:17:02;;;;;;;21.70;8.85;;;;;;;-2.48;100.00;102768.88;5073754;28;20025;-68
2023/04/04 05:19:27;;;;;;;22.52;8.98;;;;;;;-2.47;100.00;102773.31;5067035;28;20139;-68
2023/04/04 05:21:53;;;;;;;21.23;8.68;;;;;;;-2.48;100.00;102773.16;5076299;28;20036;-68
2023/04/04 05:24:19;;;;;;;21.90;9.32;;;;;;;-2.49;100.00;102776.53;5068887;28;20029;-68
2023/04/04 05:26:45;;;;;;;21.15;9.07;;;;;;;-2.47;100.00;102778.47;5068870;28;20035;-69
2023/04/04 05:29:10;;;;;;;22.80;8.80;;;;;;;-2.44;100.00;102771.78;5073069;28;20032;-68
2023/04/04 05:31:36;;;;;;;21.52;8.85;;;;;;;-2.43;100.00;102773.56;5067430;28;20352;-69
2023/04/04 05:34:06;;;;;;;23.02;9.13;;;;;;;-2.39;100.00;102775.66;5064786;28;20583;-70
2023/04/04 05:36:35;;;;;;;21.33;9.10;;;;;;;-2.40;100.00;102779.00;5073410;28;20073;-69
2023/04/04 05:39:03;;;;;;;20.77;8.55;;;;;;;-2.41;100.00;102778.13;5073942;28;20028;-68
2023/04/04 05:41:29;;;;;;;22.67;9.35;;;;;;;-2.39;100.00;102771.38;5068184;28;20029;-68
2023/04/04 05:43:55;;;;;;;23.10;9.23;;;;;;;-2.46;100.00;102782.00;5069760;28;20029;-68
2023/04/04 05:46:20;;;;;;;22.17;9.05;;;;;;;-2.40;100.00;102785.13;5069473;28;20035;-68
2023/04/04 05:48:46;;;;;;;20.77;8.73;;;;;;;-2.36;100.00;102791.47;5072611;28;20336;-69
2023/04/04 05:51:11;;;;;;;20.95;9.32;;;;;;;-2.39;100.00;102784.31;5069048;28;20498;-68
2023/04/04 05:53:37;;;;;;;21.10;9.18;;;;;;;-2.32;100.00;102788.38;5065125;28;20476;-68
2023/04/04 05:56:02;;;;;;;21.50;9.13;;;;;;;-2.24;100.00;102791.63;5065718;28;20516;-67
2023/04/04 05:58:28;;;;;;;22.20;9.55;;;;;;;-2.19;100.00;102801.63;5070701;28;20028;-68
2023/04/04 06:00:54;;;;;;;21.80;9.60;;;;;;;-2.13;100.00;102791.78;5066491;28;20495;-69
2023/04/04 06:03:19;;;;;;;21.15;8.80;;;;;;;-2.06;100.00;102793.25;5068656;28;20028;-68
2023/04/04 06:05:50;;;;;;;22.67;9.68;;;;;;;-1.96;100.00;102794.94;5075577;28;20032;-68
2023/04/04 06:08:15;;;;;;;22.35;9.70;;;;;;;-1.89;100.00;102788.59;5071041;28;20032;-69
2023/04/04 06:10:41;;;;;;;21.85;9.57;;;;;;;-1.78;100.00;102786.16;5071477;28;20032;-72
2023/04/04 06:13:06;;;;;;;24.70;12.18;;;;;;;-1.69;100.00;102782.53;5066691;28;20048;-73
2023/04/04 06:15:31;;;;;;;23.48;11.27;;;;;;;-1.59;100.00;102793.81;5068080;28;20493;-69
2023/04/04 06:17:57;;;;;;;22.80;10.20;;;;;;;-1.52;100.00;102787.44;5067369;28;20474;-69
2023/04/04 06:20:23;;;;;;;24.33;11.23;;;;;;;-1.44;100.00;102794.19;5071015;28;20546;-70
2023/04/04 06:22:48;;;;;;;22.10;10.57;;;;;;;-1.33;100.00;102797.69;5069706;28;20372;-72
2023/04/04 06:25:14;;;;;;;23.33;10.90;;;;;;;-1.20;100.00;102793.53;5070480;28;20032;-73
2023/04/04 06:27:39;;;;;;;23.15;11.00;;;;;;;-1.05;100.00;102799.97;5066221;28;20649;-70
2023/04/04 06:30:05;;;;;;;21.25;10.40;;;;;;;-0.91;100.00;102803.72;5070965;28;20032;-73
2023/04/04 06:32:31;;;;;;;21.77;10.70;;;;;;;-0.80;100.00;102805.53;5071604;28;20029;-70
2023/04/04 06:34:56;;;;;;;21.95;10.30;;;;;;;-0.71;100.00;102816.66;5073522;28;20059;-74
2023/04/04 06:37:21;;;;;;;22.30;9.88;;;;;;;-0.56;100.00;102813.50;5074890;28;20052;-69
2023/04/04 06:39:47;;;;;;;21.98;10.25;;;;;;;-0.46;100.00;102812.56;5077287;28;20052;-69
2023/04/04 06:42:12;;;;;;;22.85;10.05;;;;;;;-0.34;100.00;102805.72;5078935;28;20040;-72
2023/04/04 06:44:38;;;;;;;23.63;10.32;;;;;;;-0.25;100.00;102808.16;5074162;28;20540;-68
2023/04/04 06:47:03;;;;;;;24.77;10.68;;;;;;;-0.16;100.00;102814.09;5078725;28;20028;-70
2023/04/04 06:49:28;;;;;;;23.10;10.60;;;;;;;-0.06;100.00;102810.50;5072829;28;20044;-68
2023/04/04 06:51:54;;;;;;;23.23;10.48;;;;;;;0.07;100.00;102804.59;5077519;28;20043;-67
2023/04/04 06:54:19;;;;;;;22.05;10.20;;;;;;;0.15;100.00;102814.81;5074835;28;20029;-68
2023/04/04 06:56:45;;;;;;;22.83;10.40;;;;;;;0.27;100.00;102819.16;5079881;28;20020;-73
2023/04/04 06:59:10;;;;;;;23.70;10.77;;;;;;;0.35;100.00;102825.88;5074694;28;20498;-69
2023/04/04 07:01:36;;;;;;;22.60;10.18;;;;;;;0.45;100.00;102820.59;5072126;28;20028;-69
2023/04/04 07:04:01;;;;;;;21.80;10.45;;;;;;;0.61;100.00;102816.53;5071522;28;20421;-78
2023/04/04 07:06:28;;;;;;;21.92;10.07;;;;;;;0.66;100.00;102823.91;5076972;28;20078;-72
2023/04/04 07:08:54;;;;;;;22.15;10.18;;;;;;;0.73;100.00;102827.91;5073293;28;20075;-73
2023/04/04 07:11:22;;;;;;;21.90;10.63;;;;;;;0.82;100.00;102819.88;5075379;28;20056;-69
2023/04/04 07:13:48;;;;;;;22.65;10.95;;;;;;;0.92;100.00;102817.19;5075769;28;20032;-73
2023/04/04 07:16:13;;;;;;;22.30;10.10;;;;;;;1.00;100.00;102828.16;5079740;28;20029;-69
2023/04/04 07:18:38;;;;;;;20.70;9.68;;;;;;;1.11;100.00;102822.06;5074369;28;20025;-71
2023/04/04 07:21:04;;;;;;;21.90;9.15;;;;;;;1.21;100.00;102823.66;5076873;28;20033;-71
2023/04/04 07:23:29;;;;;;;20.88;9.50;;;;;;;1.33;100.00;102826.25;5077639;28;20044;-72
2023/04/04 07:25:55;;;;;;;23.70;9.50;;;;;;;1.47;100.00;102814.22;5076772;28;20031;-69
2023/04/04 07:28:21;;;;;;;21.60;9.30;;;;;;;1.56;100.00;102812.31;5074616;28;20082;-71
2023/04/04 07:30:46;;;;;;;21.60;8.85;;;;;;;1.71;100.00;102808.16;5073169;28;20039;-71
2023/04/04 07:33:12;;;;;;;21.35;9.38;;;;;;;1.84;100.00;102816.88;5076904;28;20033;-71
2023/04/04 07:35:37;;;;;;;21.70;9.23;;;;;;;1.94;100.00;102808.00;5073622;28;20033;-72
2023/04/04 07:38:03;;;;;;;21.27;8.95;;;;;;;2.01;100.00;102800.72;5072977;28;20056;-71
2023/04/04 07:40:28;;;;;;;21.40;8.88;;;;;;;2.14;100.00;102798.97;5076443;28;20038;-71
2023/04/04 07:42:54;;;;;;;21.98;9.25;;;;;;;2.31;100.00;102806.25;5071047;28;20434;-70
2023/04/04 07:45:21;;;;;;;20.63;8.43;;;;;;;2.41;100.00;102806.09;5072027;28;20511;-70
2023/04/04 07:47:46;;;;;;;21.50;8.18;;;;;;;2.63;100.00;102811.91;5066781;28;20092;-70
2023/04/04 07:50:13;;;;;;;19.67;7.07;;;;;;;2.88;100.00;102809.22;5070640;28;20111;-70
2023/04/04 07:52:39;;;;;;;20.27;7.20;;;;;;;3.30;100.00;102802.41;5072745;28;20064;-70
2023/04/04 07:55:06;;;;;;;19.20;6.85;;;;;;;3.60;100.00;102803.50;5070971;28;20120;-70
2023/04/04 07:57:38;;;;;;;19.83;6.88;;;;;;;3.87;100.00;102806.06;5069343;28;20482;-70
2023/04/04 08:00:08;;;;;;;20.42;6.88;;;;;;;4.01;100.00;102812.16;5076013;28;20039;-70
2023/04/04 08:02:34;;;;;;;19.48;6.40;;;;;;;4.11;93.33;102814.53;5062809;28;20376;-71
2023/04/04 08:04:59;;;;;;;19.33;6.50;;;;;;;4.27;91.50;102813.78;5068238;28;20025;-70
2023/04/04 08:07:25;;;;;;;19.48;6.78;;;;;;;4.47;92.85;102815.00;5072685;28;20029;-70
2023/04/04 08:09:50;;;;;;;17.67;5.93;;;;;;;4.68;79.92;102814.50;5073731;28;20386;-70
2023/04/04 08:12:16;;;;;;;19.13;5.97;;;;;;;4.79;76.97;102817.75;5071027;28;20025;-70
2023/04/04 08:14:41;;;;;;;17.45;5.30;;;;;;;4.84;72.98;102809.34;5066008;28;20032;-70
2023/04/04 08:17:07;;;;;;;18.45;5.60;;;;;;;4.88;71.85;102813.94;5070029;28;20035;-71
2023/04/04 08:19:32;;;;;;;18.90;5.20;;;;;;;5.07;69.78;102810.69;5065752;28;20087;-70
2023/04/04 08:21:57;;;;;;;17.80;5.35;;;;;;;5.46;67.84;102817.22;5073414;28;20035;-70
2023/04/04 08:24:23;;;;;;;17.05;4.93;;;;;;;5.66;62.75;102811.38;5073414;28;20028;-72
2023/04/04 08:26:48;;;;;;;16.70;4.72;;;;;;;5.78;61.41;102811.16;5072680;28;20032;-70
2023/04/04 08:29:13;;;;;;;16.65;4.90;;;;;;;5.91;60.22;102811.03;5070571;28;20426;-70
2023/04/04 08:31:40;;;;;;;14.55;4.20;;;;;;;5.99;59.42;102815.84;5073008;28;20041;-70
2023/04/04 08:34:07;;;;;;;14.68;3.80;;;;;;;6.05;57.07;102817.06;5077256;28;20053;-70
2023/04/04 08:36:33;;;;;;;12.95;3.80;;;;;;;6.24;56.38;102807.56;5075958;28;20035;-70
2023/04/04 08:38:58;;;;;;;14.13;3.72;;;;;;;6.33;51.28;102807.13;5068486;28;20501;-71
2023/04/04 08:41:24;;;;;;;13.65;4.00;;;;;;;6.46;51.75;102799.06;5073674;28;20042;-71
2023/04/04 08:43:53;;;;;;;15.82;3.95;;;;;;;6.71;50.96;102802.97;5065593;28;20029;-72
2023/04/04 08:46:22;;;;;;;17.23;4.80;;;;;;;6.98;52.89;102801.75;5068563;28;20017;-71
2023/04/04 08:48:49;;;;;;;16.88;4.80;;;;;;;7.54;52.49;102793.91;5071444;28;20024;-71
2023/04/04 08:51:18;;;;;;;16.80;4.60;;;;;;;7.56;48.59;102792.28;5071523;28;20036;-71
2023/04/04 08:53:43;;;;;;;15.57;4.40;;;;;;;7.94;48.95;102797.56;5068478;28;20032;-76
2023/04/04 08:56:09;;;;;;;15.55;4.30;;;;;;;8.77;50.48;102792.47;5071870;28;20446;-72
2023/04/04 08:58:34;;;;;;;15.25;3.70;;;;;;;9.19;46.39;102793.34;5073133;28;20093;-71
2023/04/04 09:01:00;;;;;;;13.93;3.80;;;;;;;9.64;44.77;102787.22;5071088;28;20064;-71
2023/04/04 09:03:29;;;;;;;14.90;4.00;;;;;;;9.72;43.75;102790.16;5065555;28;20112;-75
2023/04/04 09:05:55;;;;;;;15.98;3.70;;;;;;;10.12;42.83;102784.63;5067481;28;20032;-73
2023/04/04 09:08:23;;;;;;;16.35;3.97;;;;;;;10.34;41.96;102797.75;5069455;28;20044;-69
2023/04/04 09:10:50;;;;;;;12.57;3.10;;;;;;;10.09;38.02;102792.47;5071528;28;20056;-73
2023/04/04 09:13:16;;;;;;;11.07;3.20;;;;;;;9.85;40.16;102784.50;5073364;28;20384;-70
2023/04/04 09:15:49;;;;;;;11.05;3.30;;;;;;;9.51;40.31;102787.56;5068104;28;20028;-70
2023/04/04 09:18:15;;;;;;;15.38;3.25;;;;;;;9.27;40.57;102785.75;5073837;28;20162;-69
2023/04/04 09:20:42;;;;;;;13.35;3.65;;;;;;;9.33;41.29;102796.53;5072871;28;20028;-75
2023/04/04 09:23:16;;;;;;;11.10;3.40;;;;;;;9.69;42.49;102792.69;5073771;28;20069;-72
2023/04/04 09:25:47;;;;;;;13.48;3.63;;;;;;;10.35;42.27;102792.53;5069478;28;20193;-74
2023/04/04 09:28:14;;;;;;;14.65;3.72;;;;;;;10.37;40.98;102787.28;5067717;28;20028;-77
2023/04/04 09:30:40;;;;;;;13.90;3.60;;;;;;;10.06;39.96;102789.72;5069448;28;20391;-71
2023/04/04 09:33:08;;;;;;;12.90;3.60;;;;;;;10.18;41.05;102785.69;5069766;28;20032;-70
2023/04/04 09:35:38;;;;;;;13.93;3.63;;;;;;;10.15;40.01;102780.28;5072547;28;20028;-76
2023/04/04 09:38:07;;;;;;;13.43;3.65;;;;;;;9.92;40.67;102788.28;5067226;28;20114;-72
2023/04/04 09:40:36;;;;;;;12.75;3.50;;;;;;;9.57;41.27;102785.19;5069520;28;20029;-71
2023/04/04 09:43:05;;;;;;;15.68;3.95;;;;;;;9.43;41.47;102777.59;5067765;28;20491;-70
2023/04/04 09:45:33;;;;;;;15.23;3.70;;;;;;;9.91;42.13;102779.44;5068799;28;20033;-76
2023/04/04 09:47:59;;;;;;;15.35;4.07;;;;;;;10.59;40.04;102781.06;5064607;28;20035;-72
2023/04/04 09:50:27;;;;;;;13.50;3.53;;;;;;;11.34;39.58;102783.56;5073056;28;20028;-73
2023/04/04 09:52:57;;;;;;;15.13;3.80;;;;;;;12.60;38.11;102780.19;5064788;28;20029;-72
2023/04/04 09:55:30;;;;;;;15.60;3.85;;;;;;;13.53;36.61;102780.75;5068974;28;20115;-71
2023/04/04 09:57:56;;;;;;;13.98;3.33;;;;;;;13.02;34.73;102768.00;5074944;28;20028;-76
2023/04/04 10:00:22;;;;;;;14.93;3.75;;;;;;;12.06;36.06;102770.75;5065380;28;20466;-70
2023/04/04 10:02:48;;;;;;;14.40;3.70;;;;;;;12.05;35.14;102768.94;5071357;28;20098;-70
2023/04/04 10:05:15;;;;;;;16.00;3.90;;;;;;;12.45;37.25;102767.41;5064681;28;20021;-78
2023/04/04 10:07:42;;;;;;;14.73;3.70;;;;;;;13.22;35.67;102768.44;5062513;28;20436;-72
2023/04/04 10:10:09;;;;;;;14.88;3.70;;;;;;;14.06;33.36;102766.78;5071127;28;20055;-75
2023/04/04 10:12:37;;;;;;;14.45;3.65;;;;;;;14.25;33.12;102768.06;5069075;28;20367;-74
2023/04/04 10:15:03;;;;;;;15.00;3.50;;;;;;;13.98;32.77;102763.09;5071893;28;20032;-72
2023/04/04 10:17:30;;;;;;;14.07;3.75;;;;;;;13.74;33.14;102767.00;5068564;28;20036;-74
2023/04/04 10:20:03;;;;;;;13.07;3.42;;;;;;;14.95;32.00;102767.56;5072140;28;20032;-80
2023/04/04 10:22:29;;;;;;;15.10;3.50;;;;;;;15.63;30.84;102765.06;5063507;28;20055;-80
2023/04/04 10:24:55;;;;;;;13.80;3.75;;;;;;;15.43;31.93;102762.09;5079581;28;20133;-75
2023/04/04 10:27:21;;;;;;;16.13;3.60;;;;;;;15.64;30.13;102766.81;5063534;28;20492;-80
2023/04/04 10:29:46;;;;;;;12.88;3.67;;;;;;;16.11;29.69;102760.38;5069413;28;20083;-80
2023/04/04 10:32:22;;;;;;;14.30;3.80;;;;;;;17.15;31.42;102764.94;5067967;28;20037;-79
2023/04/04 10:35:02;;;;;;;14.20;3.67;;;;;;;17.57;30.12;102766.97;5067936;28;21921;-81
2023/04/04 10:37:33;;;;;;;16.45;3.75;;;;;;;17.75;28.02;102765.28;5069983;28;20069;-80
2023/04/04 10:40:09;;;;;;;12.82;3.70;;;;;;;17.81;29.49;102759.06;5069763;28;20093;-74
2023/04/04 10:42:40;;;;;;;13.85;3.75;;;;;;;17.82;29.22;102763.53;5068663;28;20035;-72
2023/04/04 10:45:09;;;;;;;11.70;3.63;;;;;;;18.29;27.54;102753.03;5071707;28;20025;-72
2023/04/04 10:47:36;;;;;;;12.38;3.47;;;;;;;18.07;26.69;102751.19;5069126;28;20020;-76
2023/04/04 10:50:06;;;;;;;12.95;3.53;;;;;;;18.09;26.66;102744.94;5067069;28;20047;-81
2023/04/04 10:52:32;;;;;;;12.90;3.80;;;;;;;18.51;26.70;102737.00;5074254;28;20101;-79
2023/04/04 10:55:00;;;;;;;15.35;3.90;;;;;;;18.89;27.40;102736.16;5069953;28;20028;-72
2023/04/04 10:57:27;;;;;;;14.52;3.65;;;;;;;18.93;26.68;102729.00;5061523;28;20039;-81
2023/04/04 11:00:02;;;;;;;11.95;3.60;;;;;;;18.91;27.05;102736.16;5070233;28;20576;-71
2023/04/04 11:02:53;;;;;;;14.77;3.90;;;;;;;18.61;26.94;102728.09;5065638;28;20036;-81
2023/04/04 11:05:22;;;;;;;13.77;3.72;;;;;;;18.58;25.51;102740.56;5066337;28;20032;-72
2023/04/04 11:08:12;;;;;;;13.25;3.80;;;;;;;19.62;25.38;102736.03;5070458;28;20040;-76
2023/04/04 11:10:47;;;;;;;14.95;3.95;;;;;;;20.10;26.54;102728.66;5062853;28;20051;-78